sensor_id;sensor_type;location;lat;lon;timestamp;P1;durP1;ratioP1;P2;durP2;ratioP2
37527;SDS011;23372;52.050;4.810;2023-04-03T00:01:00;4.70;;;1.40;;
37527;SDS011;23372;52.050;4.810;2023-04-03T00:03:26;2.50;;;1.07;;
37527;SDS011;23372;52.050;4.810;2023-04-03T00:05:52;3.37;;;1.33;;
37527;SDS011;23372;52.050;4.810;2023-04-03T00:08:18;3.50;;;1.20;;
37527;SDS011;23372;52.050;4.810;2023-04-03T00:10:44;2.73;;;1.30;;
37527;SDS011;23372;52.050;4.810;2023-04-03T00:13:09;3.90;;;1.40;;
37527;SDS011;23372;52.050;4.810;2023-04-03T00:15:35;2.37;;;1.00;;
37527;SDS011;23372;52.050;4.810;2023-04-03T00:18:02;2.57;;;1.17;;
37527;SDS011;23372;52.050;4.810;2023-04-03T00:20:28;3.53;;;1.60;;
37527;SDS011;23372;52.050;4.810;2023-04-03T00:22:54;3.30;;;1.23;;
37527;SDS011;23372;52.050;4.810;2023-04-03T00:25:20;2.37;;;1.30;;
37527;SDS011;23372;52.050;4.810;2023-04-03T00:27:46;3.23;;;1.13;;
37527;SDS011;23372;52.050;4.810;2023-04-03T00:30:13;3.83;;;1.10;;
37527;SDS011;23372;52.050;4.810;2023-04-03T00:32:40;1.87;;;1.10;;
37527;SDS011;23372;52.050;4.810;2023-04-03T00:35:06;3.70;;;1.23;;
37527;SDS011;23372;52.050;4.810;2023-04-03T00:37:32;4.57;;;1.50;;
37527;SDS011;23372;52.050;4.810;2023-04-03T00:39:58;3.83;;;1.30;;
37527;SDS011;23372;52.050;4.810;2023-04-03T00:42:24;3.37;;;1.37;;
37527;SDS011;23372;52.050;4.810;2023-04-03T00:47:21;2.73;;;1.27;;
37527;SDS011;23372;52.050;4.810;2023-04-03T00:49:47;3.63;;;1.10;;
37527;SDS011;23372;52.050;4.810;2023-04-03T00:52:16;5.27;;;1.53;;
37527;SDS011;23372;52.050;4.810;2023-04-03T00:54:44;4.13;;;1.50;;
37527;SDS011;23372;52.050;4.810;2023-04-03T00:57:12;5.67;;;1.20;;
37527;SDS011;23372;52.050;4.810;2023-04-03T00:59:44;3.50;;;1.60;;
37527;SDS011;23372;52.050;4.810;2023-04-03T01:02:14;4.30;;;1.13;;
37527;SDS011;23372;52.050;4.810;2023-04-03T01:04:41;2.77;;;1.20;;
37527;SDS011;23372;52.050;4.810;2023-04-03T01:07:11;3.40;;;1.20;;
37527;SDS011;23372;52.050;4.810;2023-04-03T01:09:37;2.10;;;1.23;;
37527;SDS011;23372;52.050;4.810;2023-04-03T01:12:18;3.10;;;1.30;;
37527;SDS011;23372;52.050;4.810;2023-04-03T01:14:50;3.67;;;1.63;;
37527;SDS011;23372;52.050;4.810;2023-04-03T01:17:27;3.10;;;1.43;;
37527;SDS011;23372;52.050;4.810;2023-04-03T01:22:44;3.00;;;1.43;;
37527;SDS011;23372;52.050;4.810;2023-04-03T01:25:32;3.13;;;1.60;;
37527;SDS011;23372;52.050;4.810;2023-04-03T01:28:00;3.63;;;1.40;;
37527;SDS011;23372;52.050;4.810;2023-04-03T01:30:28;2.37;;;1.30;;
37527;SDS011;23372;52.050;4.810;2023-04-03T01:32:56;5.90;;;1.70;;
37527;SDS011;23372;52.050;4.810;2023-04-03T01:35:22;4.73;;;1.67;;
37527;SDS011;23372;52.050;4.810;2023-04-03T01:37:47;3.20;;;1.30;;
37527;SDS011;23372;52.050;4.810;2023-04-03T01:40:13;6.20;;;2.20;;
37527;SDS011;23372;52.050;4.810;2023-04-03T01:42:38;2.27;;;1.40;;
37527;SDS011;23372;52.050;4.810;2023-04-03T01:45:04;3.27;;;1.67;;
37527;SDS011;23372;52.050;4.810;2023-04-03T01:47:30;2.70;;;1.47;;
37527;SDS011;23372;52.050;4.810;2023-04-03T01:49:56;4.23;;;1.53;;
37527;SDS011;23372;52.050;4.810;2023-04-03T01:52:21;5.97;;;1.40;;
37527;SDS011;23372;52.050;4.810;2023-04-03T01:54:47;6.27;;;1.57;;
37527;SDS011;23372;52.050;4.810;2023-04-03T01:57:12;3.60;;;1.53;;
37527;SDS011;23372;52.050;4.810;2023-04-03T01:59:39;3.90;;;1.40;;
37527;SDS011;23372;52.050;4.810;2023-04-03T02:02:05;2.87;;;1.30;;
37527;SDS011;23372;52.050;4.810;2023-04-03T02:04:31;3.60;;;1.13;;
37527;SDS011;23372;52.050;4.810;2023-04-03T02:06:57;5.63;;;1.70;;
37527;SDS011;23372;52.050;4.810;2023-04-03T02:09:22;7.03;;;1.63;;
37527;SDS011;23372;52.050;4.810;2023-04-03T02:11:48;3.13;;;1.60;;
37527;SDS011;23372;52.050;4.810;2023-04-03T02:14:13;7.23;;;1.63;;
37527;SDS011;23372;52.050;4.810;2023-04-03T02:16:39;2.17;;;1.40;;
37527;SDS011;23372;52.050;4.810;2023-04-03T02:19:04;2.33;;;1.13;;
37527;SDS011;23372;52.050;4.810;2023-04-03T02:21:30;5.33;;;1.70;;
37527;SDS011;23372;52.050;4.810;2023-04-03T02:23:55;6.23;;;1.93;;
37527;SDS011;23372;52.050;4.810;2023-04-03T02:26:21;4.10;;;1.60;;
37527;SDS011;23372;52.050;4.810;2023-04-03T02:28:47;3.90;;;1.80;;
37527;SDS011;23372;52.050;4.810;2023-04-03T02:31:12;3.23;;;1.43;;
37527;SDS011;23372;52.050;4.810;2023-04-03T02:33:38;3.80;;;1.90;;
37527;SDS011;23372;52.050;4.810;2023-04-03T02:36:04;4.37;;;1.90;;
37527;SDS011;23372;52.050;4.810;2023-04-03T02:38:31;5.87;;;1.97;;
37527;SDS011;23372;52.050;4.810;2023-04-03T02:41:04;1.87;;;1.40;;
37527;SDS011;23372;52.050;4.810;2023-04-03T02:43:32;4.53;;;1.80;;
37527;SDS011;23372;52.050;4.810;2023-04-03T02:45:58;2.00;;;1.23;;
37527;SDS011;23372;52.050;4.810;2023-04-03T02:48:24;2.73;;;2.00;;
37527;SDS011;23372;52.050;4.810;2023-04-03T02:50:50;4.63;;;2.00;;
37527;SDS011;23372;52.050;4.810;2023-04-03T02:53:16;5.70;;;1.90;;
37527;SDS011;23372;52.050;4.810;2023-04-03T02:55:42;5.17;;;1.77;;
37527;SDS011;23372;52.050;4.810;2023-04-03T02:58:08;4.30;;;2.07;;
37527;SDS011;23372;52.050;4.810;2023-04-03T03:00:34;5.50;;;2.00;;
37527;SDS011;23372;52.050;4.810;2023-04-03T03:03:00;4.60;;;1.83;;
37527;SDS011;23372;52.050;4.810;2023-04-03T03:05:26;4.43;;;2.07;;
37527;SDS011;23372;52.050;4.810;2023-04-03T03:07:52;4.80;;;1.90;;
37527;SDS011;23372;52.050;4.810;2023-04-03T03:10:19;3.70;;;1.70;;
37527;SDS011;23372;52.050;4.810;2023-04-03T03:12:45;4.77;;;1.70;;
37527;SDS011;23372;52.050;4.810;2023-04-03T03:15:10;5.47;;;2.03;;
37527;SDS011;23372;52.050;4.810;2023-04-03T03:17:37;7.23;;;2.30;;
37527;SDS011;23372;52.050;4.810;2023-04-03T03:20:03;5.13;;;1.83;;
37527;SDS011;23372;52.050;4.810;2023-04-03T03:22:30;3.30;;;1.83;;
37527;SDS011;23372;52.050;4.810;2023-04-03T03:24:55;7.53;;;2.03;;
37527;SDS011;23372;52.050;4.810;2023-04-03T03:27:21;7.87;;;2.10;;
37527;SDS011;23372;52.050;4.810;2023-04-03T03:29:46;7.03;;;2.40;;
37527;SDS011;23372;52.050;4.810;2023-04-03T03:32:12;3.00;;;1.50;;
37527;SDS011;23372;52.050;4.810;2023-04-03T03:34:38;3.93;;;1.93;;
37527;SDS011;23372;52.050;4.810;2023-04-03T03:37:03;6.10;;;1.83;;
37527;SDS011;23372;52.050;4.810;2023-04-03T03:39:29;4.53;;;1.70;;
37527;SDS011;23372;52.050;4.810;2023-04-03T03:41:55;3.80;;;1.83;;
37527;SDS011;23372;52.050;4.810;2023-04-03T03:44:20;4.40;;;1.73;;
37527;SDS011;23372;52.050;4.810;2023-04-03T03:46:46;5.50;;;2.30;;
37527;SDS011;23372;52.050;4.810;2023-04-03T03:49:12;5.30;;;2.03;;
37527;SDS011;23372;52.050;4.810;2023-04-03T03:51:38;3.97;;;2.00;;
37527;SDS011;23372;52.050;4.810;2023-04-03T03:54:04;9.40;;;1.90;;
37527;SDS011;23372;52.050;4.810;2023-04-03T03:56:30;5.17;;;1.83;;
37527;SDS011;23372;52.050;4.810;2023-04-03T03:58:56;3.67;;;1.90;;
37527;SDS011;23372;52.050;4.810;2023-04-03T04:01:22;4.30;;;2.13;;
37527;SDS011;23372;52.050;4.810;2023-04-03T04:03:48;4.77;;;2.37;;
37527;SDS011;23372;52.050;4.810;2023-04-03T04:06:14;4.37;;;2.27;;
37527;SDS011;23372;52.050;4.810;2023-04-03T04:08:40;8.47;;;2.47;;
37527;SDS011;23372;52.050;4.810;2023-04-03T04:11:06;7.43;;;2.57;;
37527;SDS011;23372;52.050;4.810;2023-04-03T04:13:32;6.17;;;2.00;;
37527;SDS011;23372;52.050;4.810;2023-04-03T04:15:57;4.47;;;2.10;;
37527;SDS011;23372;52.050;4.810;2023-04-03T04:18:23;3.53;;;2.00;;
37527;SDS011;23372;52.050;4.810;2023-04-03T04:20:49;4.23;;;2.00;;
37527;SDS011;23372;52.050;4.810;2023-04-03T04:23:15;7.80;;;2.37;;
37527;SDS011;23372;52.050;4.810;2023-04-03T04:25:44;7.53;;;2.20;;
37527;SDS011;23372;52.050;4.810;2023-04-03T04:28:10;3.90;;;1.80;;
37527;SDS011;23372;52.050;4.810;2023-04-03T04:30:36;5.47;;;2.47;;
37527;SDS011;23372;52.050;4.810;2023-04-03T04:33:02;3.50;;;1.90;;
37527;SDS011;23372;52.050;4.810;2023-04-03T04:35:28;4.57;;;2.80;;
37527;SDS011;23372;52.050;4.810;2023-04-03T04:37:53;4.53;;;2.00;;
37527;SDS011;23372;52.050;4.810;2023-04-03T04:40:19;5.27;;;2.23;;
37527;SDS011;23372;52.050;4.810;2023-04-03T04:42:45;9.00;;;2.63;;
37527;SDS011;23372;52.050;4.810;2023-04-03T04:45:11;6.40;;;2.00;;
37527;SDS011;23372;52.050;4.810;2023-04-03T04:47:36;4.53;;;2.07;;
37527;SDS011;23372;52.050;4.810;2023-04-03T04:50:02;6.10;;;2.23;;
37527;SDS011;23372;52.050;4.810;2023-04-03T04:52:28;6.07;;;3.23;;
37527;SDS011;23372;52.050;4.810;2023-04-03T04:54:54;7.57;;;2.90;;
37527;SDS011;23372;52.050;4.810;2023-04-03T04:57:19;3.87;;;2.30;;
37527;SDS011;23372;52.050;4.810;2023-04-03T04:59:45;6.97;;;2.67;;
37527;SDS011;23372;52.050;4.810;2023-04-03T05:02:10;7.67;;;2.63;;
37527;SDS011;23372;52.050;4.810;2023-04-03T05:04:36;6.47;;;2.60;;
37527;SDS011;23372;52.050;4.810;2023-04-03T05:07:02;7.53;;;2.70;;
37527;SDS011;23372;52.050;4.810;2023-04-03T05:09:27;9.33;;;2.57;;
37527;SDS011;23372;52.050;4.810;2023-04-03T05:11:53;4.97;;;2.23;;
37527;SDS011;23372;52.050;4.810;2023-04-03T05:14:19;7.10;;;2.17;;
37527;SDS011;23372;52.050;4.810;2023-04-03T05:16:44;5.57;;;2.47;;
37527;SDS011;23372;52.050;4.810;2023-04-03T05:19:10;6.37;;;2.27;;
37527;SDS011;23372;52.050;4.810;2023-04-03T05:21:36;6.37;;;2.30;;
37527;SDS011;23372;52.050;4.810;2023-04-03T05:24:01;5.23;;;2.40;;
37527;SDS011;23372;52.050;4.810;2023-04-03T05:26:28;5.70;;;2.40;;
37527;SDS011;23372;52.050;4.810;2023-04-03T05:28:54;5.90;;;2.63;;
37527;SDS011;23372;52.050;4.810;2023-04-03T05:31:20;7.20;;;2.80;;
37527;SDS011;23372;52.050;4.810;2023-04-03T05:33:46;7.10;;;2.13;;
37527;SDS011;23372;52.050;4.810;2023-04-03T05:36:12;7.17;;;2.87;;
37527;SDS011;23372;52.050;4.810;2023-04-03T05:38:38;4.10;;;2.27;;
37527;SDS011;23372;52.050;4.810;2023-04-03T05:41:04;7.47;;;2.67;;
37527;SDS011;23372;52.050;4.810;2023-04-03T05:43:30;5.17;;;2.20;;
37527;SDS011;23372;52.050;4.810;2023-04-03T05:45:56;4.40;;;2.17;;
37527;SDS011;23372;52.050;4.810;2023-04-03T05:48:22;6.33;;;2.53;;
37527;SDS011;23372;52.050;4.810;2023-04-03T05:50:47;5.13;;;2.37;;
37527;SDS011;23372;52.050;4.810;2023-04-03T05:53:15;6.50;;;2.53;;
37527;SDS011;23372;52.050;4.810;2023-04-03T05:55:47;5.47;;;2.50;;
37527;SDS011;23372;52.050;4.810;2023-04-03T05:58:12;10.37;;;3.00;;
37527;SDS011;23372;52.050;4.810;2023-04-03T06:00:38;5.60;;;2.63;;
37527;SDS011;23372;52.050;4.810;2023-04-03T06:03:03;4.07;;;2.10;;
37527;SDS011;23372;52.050;4.810;2023-04-03T06:05:30;5.77;;;2.47;;
37527;SDS011;23372;52.050;4.810;2023-04-03T06:07:55;5.93;;;2.40;;
37527;SDS011;23372;52.050;4.810;2023-04-03T06:10:22;9.30;;;2.77;;
37527;SDS011;23372;52.050;4.810;2023-04-03T06:12:47;11.40;;;3.00;;
37527;SDS011;23372;52.050;4.810;2023-04-03T06:15:13;3.77;;;2.30;;
37527;SDS011;23372;52.050;4.810;2023-04-03T06:17:39;5.90;;;2.50;;
37527;SDS011;23372;52.050;4.810;2023-04-03T06:20:05;8.03;;;2.70;;
37527;SDS011;23372;52.050;4.810;2023-04-03T06:22:31;6.33;;;2.77;;
37527;SDS011;23372;52.050;4.810;2023-04-03T06:24:57;8.07;;;2.80;;
37527;SDS011;23372;52.050;4.810;2023-04-03T06:27:22;6.63;;;3.00;;
37527;SDS011;23372;52.050;4.810;2023-04-03T06:29:48;8.40;;;2.80;;
37527;SDS011;23372;52.050;4.810;2023-04-03T06:32:14;7.93;;;2.67;;
37527;SDS011;23372;52.050;4.810;2023-04-03T06:34:40;6.57;;;2.90;;
37527;SDS011;23372;52.050;4.810;2023-04-03T06:37:06;7.53;;;2.73;;
37527;SDS011;23372;52.050;4.810;2023-04-03T06:39:39;6.90;;;2.50;;
37527;SDS011;23372;52.050;4.810;2023-04-03T06:42:05;4.83;;;2.37;;
37527;SDS011;23372;52.050;4.810;2023-04-03T06:44:30;8.70;;;2.77;;
37527;SDS011;23372;52.050;4.810;2023-04-03T06:46:58;4.97;;;2.03;;
37527;SDS011;23372;52.050;4.810;2023-04-03T06:49:24;7.60;;;2.57;;
37527;SDS011;23372;52.050;4.810;2023-04-03T06:51:50;4.60;;;1.83;;
37527;SDS011;23372;52.050;4.810;2023-04-03T06:54:16;4.73;;;2.00;;
37527;SDS011;23372;52.050;4.810;2023-04-03T06:56:42;4.50;;;2.40;;
37527;SDS011;23372;52.050;4.810;2023-04-03T06:59:09;4.20;;;1.60;;
37527;SDS011;23372;52.050;4.810;2023-04-03T07:01:37;2.93;;;1.70;;
37527;SDS011;23372;52.050;4.810;2023-04-03T07:04:02;4.57;;;1.60;;
37527;SDS011;23372;52.050;4.810;2023-04-03T07:06:28;7.97;;;2.33;;
37527;SDS011;23372;52.050;4.810;2023-04-03T07:08:54;5.28;;;1.80;;
37527;SDS011;23372;52.050;4.810;2023-04-03T07:11:20;6.82;;;2.00;;
37527;SDS011;23372;52.050;4.810;2023-04-03T07:13:46;5.40;;;1.75;;
37527;SDS011;23372;52.050;4.810;2023-04-03T07:16:11;8.57;;;2.10;;
37527;SDS011;23372;52.050;4.810;2023-04-03T07:18:37;4.05;;;1.75;;
37527;SDS011;23372;52.050;4.810;2023-04-03T07:21:03;4.30;;;1.63;;
37527;SDS011;23372;52.050;4.810;2023-04-03T07:23:29;5.50;;;1.55;;
37527;SDS011;23372;52.050;4.810;2023-04-03T07:25:54;6.28;;;1.83;;
37527;SDS011;23372;52.050;4.810;2023-04-03T07:28:21;4.97;;;1.80;;
37527;SDS011;23372;52.050;4.810;2023-04-03T07:30:51;2.88;;;1.55;;
37527;SDS011;23372;52.050;4.810;2023-04-03T07:33:19;3.50;;;1.63;;
37527;SDS011;23372;52.050;4.810;2023-04-03T07:35:46;5.38;;;1.85;;
37527;SDS011;23372;52.050;4.810;2023-04-03T07:38:11;7.90;;;1.88;;
37527;SDS011;23372;52.050;4.810;2023-04-03T07:40:38;4.70;;;1.80;;
37527;SDS011;23372;52.050;4.810;2023-04-03T07:43:04;3.60;;;1.50;;
37527;SDS011;23372;52.050;4.810;2023-04-03T07:45:31;3.90;;;1.60;;
37527;SDS011;23372;52.050;4.810;2023-04-03T07:47:57;3.72;;;1.60;;
37527;SDS011;23372;52.050;4.810;2023-04-03T07:50:22;3.33;;;1.67;;
37527;SDS011;23372;52.050;4.810;2023-04-03T07:52:48;8.50;;;1.45;;
37527;SDS011;23372;52.050;4.810;2023-04-03T07:55:15;7.10;;;2.10;;
37527;SDS011;23372;52.050;4.810;2023-04-03T07:57:41;6.00;;;1.92;;
37527;SDS011;23372;52.050;4.810;2023-04-03T08:00:07;8.63;;;1.67;;
37527;SDS011;23372;52.050;4.810;2023-04-03T08:02:34;6.28;;;1.48;;
37527;SDS011;23372;52.050;4.810;2023-04-03T08:05:01;7.68;;;1.92;;
37527;SDS011;23372;52.050;4.810;2023-04-03T08:07:26;5.53;;;1.63;;
37527;SDS011;23372;52.050;4.810;2023-04-03T08:09:52;5.13;;;1.58;;
37527;SDS011;23372;52.050;4.810;2023-04-03T08:12:17;5.25;;;1.60;;
37527;SDS011;23372;52.050;4.810;2023-04-03T08:14:43;4.63;;;1.63;;
37527;SDS011;23372;52.050;4.810;2023-04-03T08:17:09;3.35;;;1.52;;
37527;SDS011;23372;52.050;4.810;2023-04-03T08:19:37;4.88;;;1.50;;
37527;SDS011;23372;52.050;4.810;2023-04-03T08:22:03;5.65;;;1.45;;
37527;SDS011;23372;52.050;4.810;2023-04-03T08:24:30;5.18;;;1.80;;
37527;SDS011;23372;52.050;4.810;2023-04-03T08:26:56;3.80;;;1.25;;
37527;SDS011;23372;52.050;4.810;2023-04-03T08:29:22;5.03;;;1.75;;
37527;SDS011;23372;52.050;4.810;2023-04-03T08:31:48;4.18;;;1.27;;
37527;SDS011;23372;52.050;4.810;2023-04-03T08:34:15;2.92;;;1.13;;
37527;SDS011;23372;52.050;4.810;2023-04-03T08:36:41;4.28;;;1.58;;
37527;SDS011;23372;52.050;4.810;2023-04-03T08:39:06;3.85;;;1.30;;
37527;SDS011;23372;52.050;4.810;2023-04-03T08:41:33;5.53;;;1.52;;
37527;SDS011;23372;52.050;4.810;2023-04-03T08:47:01;2.33;;;1.10;;
37527;SDS011;23372;52.050;4.810;2023-04-03T08:49:50;3.65;;;1.33;;
37527;SDS011;23372;52.050;4.810;2023-04-03T08:55:27;2.33;;;1.10;;
37527;SDS011;23372;52.050;4.810;2023-04-03T08:58:03;3.90;;;1.07;;
37527;SDS011;23372;52.050;4.810;2023-04-03T09:03:22;2.27;;;1.00;;
37527;SDS011;23372;52.050;4.810;2023-04-03T09:05:50;1.10;;;0.70;;
37527;SDS011;23372;52.050;4.810;2023-04-03T09:08:27;3.77;;;1.10;;
37527;SDS011;23372;52.050;4.810;2023-04-03T09:13:59;2.43;;;1.20;;
37527;SDS011;23372;52.050;4.810;2023-04-03T09:16:34;5.43;;;0.97;;
37527;SDS011;23372;52.050;4.810;2023-04-03T09:21:45;2.17;;;0.77;;
37527;SDS011;23372;52.050;4.810;2023-04-03T09:24:12;1.67;;;0.77;;
37527;SDS011;23372;52.050;4.810;2023-04-03T09:26:53;2.67;;;0.80;;
37527;SDS011;23372;52.050;4.810;2023-04-03T09:29:25;2.37;;;0.90;;
37527;SDS011;23372;52.050;4.810;2023-04-03T09:32:34;2.27;;;0.77;;
37527;SDS011;23372;52.050;4.810;2023-04-03T09:34:43;1.30;;;0.80;;
37527;SDS011;23372;52.050;4.810;2023-04-03T09:37:10;3.33;;;0.80;;
37527;SDS011;23372;52.050;4.810;2023-04-03T09:40:01;1.53;;;0.60;;
37527;SDS011;23372;52.050;4.810;2023-04-03T09:42:29;1.87;;;0.80;;
37527;SDS011;23372;52.050;4.810;2023-04-03T09:47:36;2.67;;;1.17;;
37527;SDS011;23372;52.050;4.810;2023-04-03T09:50:16;1.73;;;0.83;;
37527;SDS011;23372;52.050;4.810;2023-04-03T09:52:48;2.17;;;1.00;;
37527;SDS011;23372;52.050;4.810;2023-04-03T09:55:18;2.60;;;0.90;;
37527;SDS011;23372;52.050;4.810;2023-04-03T09:57:44;2.27;;;0.80;;
37527;SDS011;23372;52.050;4.810;2023-04-03T10:00:19;2.80;;;0.70;;
37527;SDS011;23372;52.050;4.810;2023-04-03T10:02:49;2.83;;;0.83;;
37527;SDS011;23372;52.050;4.810;2023-04-03T10:05:28;2.30;;;0.60;;
37527;SDS011;23372;52.050;4.810;2023-04-03T10:08:10;1.37;;;0.70;;
37527;SDS011;23372;52.050;4.810;2023-04-03T10:10:36;1.60;;;0.60;;
37527;SDS011;23372;52.050;4.810;2023-04-03T10:13:06;1.30;;;0.60;;
37527;SDS011;23372;52.050;4.810;2023-04-03T10:15:39;2.77;;;0.80;;
37527;SDS011;23372;52.050;4.810;2023-04-03T10:18:57;0.77;;;0.70;;
37527;SDS011;23372;52.050;4.810;2023-04-03T10:29:13;0.60;;;0.47;;
37527;SDS011;23372;52.050;4.810;2023-04-03T10:34:33;2.33;;;0.83;;
37527;SDS011;23372;52.050;4.810;2023-04-03T10:37:24;1.60;;;0.63;;
37527;SDS011;23372;52.050;4.810;2023-04-03T10:39:59;3.80;;;1.37;;
37527;SDS011;23372;52.050;4.810;2023-04-03T10:43:02;3.57;;;0.70;;
37527;SDS011;23372;52.050;4.810;2023-04-03T10:46:00;1.90;;;0.80;;
37527;SDS011;23372;52.050;4.810;2023-04-03T10:56:39;2.40;;;0.50;;
37527;SDS011;23372;52.050;4.810;2023-04-03T10:59:23;1.73;;;0.50;;
37527;SDS011;23372;52.050;4.810;2023-04-03T11:01:59;1.07;;;0.47;;
37527;SDS011;23372;52.050;4.810;2023-04-03T11:04:27;0.90;;;0.40;;
37527;SDS011;23372;52.050;4.810;2023-04-03T11:07:04;1.00;;;0.40;;
37527;SDS011;23372;52.050;4.810;2023-04-03T11:09:38;1.70;;;0.40;;
37527;SDS011;23372;52.050;4.810;2023-04-03T11:12:18;2.73;;;0.47;;
37527;SDS011;23372;52.050;4.810;2023-04-03T11:14:58;1.33;;;0.40;;
37527;SDS011;23372;52.050;4.810;2023-04-03T11:18:09;0.50;;;0.30;;
37527;SDS011;23372;52.050;4.810;2023-04-03T11:20:20;0.33;;;0.20;;
37527;SDS011;23372;52.050;4.810;2023-04-03T11:22:57;2.03;;;0.30;;
37527;SDS011;23372;52.050;4.810;2023-04-03T11:25:28;0.43;;;0.40;;
37527;SDS011;23372;52.050;4.810;2023-04-03T11:30:34;1.27;;;0.33;;
37527;SDS011;23372;52.050;4.810;2023-04-03T11:36:07;3.07;;;0.40;;
37527;SDS011;23372;52.050;4.810;2023-04-03T11:38:44;0.93;;;0.53;;
37527;SDS011;23372;52.050;4.810;2023-04-03T11:41:13;0.90;;;0.23;;
37527;SDS011;23372;52.050;4.810;2023-04-03T11:43:59;2.03;;;0.40;;
37527;SDS011;23372;52.050;4.810;2023-04-03T12:16:22;1.27;;;0.57;;
37527;SDS011;23372;52.050;4.810;2023-04-03T12:22:12;0.70;;;0.40;;
37527;SDS011;23372;52.050;4.810;2023-04-03T12:24:41;1.47;;;0.50;;
37527;SDS011;23372;52.050;4.810;2023-04-03T12:30:13;1.13;;;0.50;;
37527;SDS011;23372;52.050;4.810;2023-04-03T12:35:27;3.00;;;0.90;;
37527;SDS011;23372;52.050;4.810;2023-04-03T12:44:01;2.27;;;0.40;;
37527;SDS011;23372;52.050;4.810;2023-04-03T12:46:48;1.83;;;0.63;;
37527;SDS011;23372;52.050;4.810;2023-04-03T12:51:57;1.73;;;0.70;;
37527;SDS011;23372;52.050;4.810;2023-04-03T12:57:12;2.77;;;0.63;;
37527;SDS011;23372;52.050;4.810;2023-04-03T12:59:42;2.53;;;0.70;;
37527;SDS011;23372;52.050;4.810;2023-04-03T13:02:16;2.70;;;0.80;;
37527;SDS011;23372;52.050;4.810;2023-04-03T13:04:46;3.23;;;0.70;;
37527;SDS011;23372;52.050;4.810;2023-04-03T13:12:53;3.77;;;0.90;;
37527;SDS011;23372;52.050;4.810;2023-04-03T13:15:28;2.07;;;0.50;;
37527;SDS011;23372;52.050;4.810;2023-04-03T13:17:55;1.83;;;0.70;;
37527;SDS011;23372;52.050;4.810;2023-04-03T13:20:26;3.77;;;0.87;;
37527;SDS011;23372;52.050;4.810;2023-04-03T13:22:55;1.63;;;0.70;;
37527;SDS011;23372;52.050;4.810;2023-04-03T13:25:31;2.03;;;0.70;;
37527;SDS011;23372;52.050;4.810;2023-04-03T13:27:59;1.27;;;0.60;;
37527;SDS011;23372;52.050;4.810;2023-04-03T13:30:28;2.30;;;0.80;;
37527;SDS011;23372;52.050;4.810;2023-04-03T13:32:58;1.40;;;0.63;;
37527;SDS011;23372;52.050;4.810;2023-04-03T13:35:30;1.50;;;0.67;;
37527;SDS011;23372;52.050;4.810;2023-04-03T13:38:21;2.07;;;0.80;;
37527;SDS011;23372;52.050;4.810;2023-04-03T13:40:55;1.73;;;0.80;;
37527;SDS011;23372;52.050;4.810;2023-04-03T13:43:26;3.10;;;0.90;;
37527;SDS011;23372;52.050;4.810;2023-04-03T13:46:04;1.17;;;0.67;;
37527;SDS011;23372;52.050;4.810;2023-04-03T13:48:51;1.67;;;0.70;;
37527;SDS011;23372;52.050;4.810;2023-04-03T13:51:20;1.67;;;0.90;;
37527;SDS011;23372;52.050;4.810;2023-04-03T13:53:50;1.27;;;0.53;;
37527;SDS011;23372;52.050;4.810;2023-04-03T14:02:14;2.10;;;0.80;;
37527;SDS011;23372;52.050;4.810;2023-04-03T14:04:30;2.03;;;0.70;;
37527;SDS011;23372;52.050;4.810;2023-04-03T14:06:57;1.27;;;0.47;;
37527;SDS011;23372;52.050;4.810;2023-04-03T14:09:24;2.47;;;0.77;;
37527;SDS011;23372;52.050;4.810;2023-04-03T14:11:55;2.03;;;0.70;;
37527;SDS011;23372;52.050;4.810;2023-04-03T14:14:29;2.63;;;0.90;;
37527;SDS011;23372;52.050;4.810;2023-04-03T14:16:58;1.77;;;0.80;;
37527;SDS011;23372;52.050;4.810;2023-04-03T14:19:26;2.30;;;0.70;;
37527;SDS011;23372;52.050;4.810;2023-04-03T14:21:54;1.23;;;0.87;;
37527;SDS011;23372;52.050;4.810;2023-04-03T14:24:21;1.47;;;0.80;;
37527;SDS011;23372;52.050;4.810;2023-04-03T14:26:51;2.07;;;0.80;;
37527;SDS011;23372;52.050;4.810;2023-04-03T14:29:19;2.87;;;0.80;;
37527;SDS011;23372;52.050;4.810;2023-04-03T14:31:46;1.73;;;0.80;;
37527;SDS011;23372;52.050;4.810;2023-04-03T14:34:13;2.33;;;0.70;;
37527;SDS011;23372;52.050;4.810;2023-04-03T14:36:40;1.67;;;0.67;;
37527;SDS011;23372;52.050;4.810;2023-04-03T14:39:10;3.17;;;0.90;;
37527;SDS011;23372;52.050;4.810;2023-04-03T14:41:41;2.93;;;0.93;;
37527;SDS011;23372;52.050;4.810;2023-04-03T14:44:08;5.40;;;1.00;;
37527;SDS011;23372;52.050;4.810;2023-04-03T14:46:38;2.57;;;1.00;;
37527;SDS011;23372;52.050;4.810;2023-04-03T14:49:18;1.83;;;1.43;;
37527;SDS011;23372;52.050;4.810;2023-04-03T14:51:46;4.10;;;1.10;;
37527;SDS011;23372;52.050;4.810;2023-04-03T14:54:16;1.63;;;0.90;;
37527;SDS011;23372;52.050;4.810;2023-04-03T14:56:44;2.87;;;1.00;;
37527;SDS011;23372;52.050;4.810;2023-04-03T14:59:13;2.77;;;0.90;;
37527;SDS011;23372;52.050;4.810;2023-04-03T15:01:39;2.67;;;1.20;;
37527;SDS011;23372;52.050;4.810;2023-04-03T15:04:10;2.97;;;0.90;;
37527;SDS011;23372;52.050;4.810;2023-04-03T15:06:37;3.37;;;0.80;;
37527;SDS011;23372;52.050;4.810;2023-04-03T15:09:03;5.10;;;1.10;;
37527;SDS011;23372;52.050;4.810;2023-04-03T15:11:29;11.00;;;2.80;;
37527;SDS011;23372;52.050;4.810;2023-04-03T15:13:54;4.37;;;0.90;;
37527;SDS011;23372;52.050;4.810;2023-04-03T15:16:20;2.20;;;1.37;;
37527;SDS011;23372;52.050;4.810;2023-04-03T15:18:47;1.83;;;0.93;;
37527;SDS011;23372;52.050;4.810;2023-04-03T15:21:13;4.57;;;1.13;;
37527;SDS011;23372;52.050;4.810;2023-04-03T15:23:39;3.00;;;1.20;;
37527;SDS011;23372;52.050;4.810;2023-04-03T15:26:05;1.90;;;0.90;;
37527;SDS011;23372;52.050;4.810;2023-04-03T15:28:35;3.07;;;0.90;;
37527;SDS011;23372;52.050;4.810;2023-04-03T15:31:04;2.67;;;1.10;;
37527;SDS011;23372;52.050;4.810;2023-04-03T15:33:30;2.23;;;0.83;;
37527;SDS011;23372;52.050;4.810;2023-04-03T15:35:57;3.00;;;1.13;;
37527;SDS011;23372;52.050;4.810;2023-04-03T15:38:22;1.20;;;0.80;;
37527;SDS011;23372;52.050;4.810;2023-04-03T15:40:48;3.90;;;1.00;;
37527;SDS011;23372;52.050;4.810;2023-04-03T15:43:14;2.60;;;0.83;;
37527;SDS011;23372;52.050;4.810;2023-04-03T15:45:40;3.53;;;0.90;;
37527;SDS011;23372;52.050;4.810;2023-04-03T15:48:07;3.80;;;1.30;;
37527;SDS011;23372;52.050;4.810;2023-04-03T15:50:33;7.03;;;1.07;;
37527;SDS011;23372;52.050;4.810;2023-04-03T15:52:59;4.10;;;1.43;;
37527;SDS011;23372;52.050;4.810;2023-04-03T15:55:27;3.07;;;1.00;;
37527;SDS011;23372;52.050;4.810;2023-04-03T15:57:54;2.63;;;1.10;;
37527;SDS011;23372;52.050;4.810;2023-04-03T16:00:21;2.60;;;0.93;;
37527;SDS011;23372;52.050;4.810;2023-04-03T16:02:47;3.67;;;1.10;;
37527;SDS011;23372;52.050;4.810;2023-04-03T16:05:15;2.50;;;1.00;;
37527;SDS011;23372;52.050;4.810;2023-04-03T16:07:43;1.80;;;1.00;;
37527;SDS011;23372;52.050;4.810;2023-04-03T16:10:10;5.00;;;0.90;;
37527;SDS011;23372;52.050;4.810;2023-04-03T16:12:37;4.93;;;1.13;;
37527;SDS011;23372;52.050;4.810;2023-04-03T16:15:02;2.23;;;1.10;;
37527;SDS011;23372;52.050;4.810;2023-04-03T16:17:29;3.73;;;1.20;;
37527;SDS011;23372;52.050;4.810;2023-04-03T16:19:57;5.20;;;1.00;;
37527;SDS011;23372;52.050;4.810;2023-04-03T16:22:23;5.80;;;1.17;;
37527;SDS011;23372;52.050;4.810;2023-04-03T16:24:50;3.07;;;1.30;;
37527;SDS011;23372;52.050;4.810;2023-04-03T16:27:16;2.33;;;0.93;;
37527;SDS011;23372;52.050;4.810;2023-04-03T16:29:42;3.33;;;0.90;;
37527;SDS011;23372;52.050;4.810;2023-04-03T16:32:07;3.77;;;1.33;;
37527;SDS011;23372;52.050;4.810;2023-04-03T16:34:33;3.13;;;1.47;;
37527;SDS011;23372;52.050;4.810;2023-04-03T16:36:59;8.53;;;1.20;;
37527;SDS011;23372;52.050;4.810;2023-04-03T16:39:25;4.67;;;1.30;;
37527;SDS011;23372;52.050;4.810;2023-04-03T16:41:51;3.27;;;1.23;;
37527;SDS011;23372;52.050;4.810;2023-04-03T16:44:16;6.17;;;1.70;;